sensor_id;sensor_type;location;lat;lon;timestamp;temperature;humidity
68128;SHT30;54931;52.098;21.006;2023-02-11T00:01:25;2.40;77.37
68128;SHT30;54931;52.098;21.006;2023-02-11T00:04:00;2.39;77.31
68128;SHT30;54931;52.098;21.006;2023-02-11T00:06:32;2.38;77.30
68128;SHT30;54931;52.098;21.006;2023-02-11T00:09:02;2.37;77.30
68128;SHT30;54931;52.098;21.006;2023-02-11T00:11:34;2.36;77.29
68128;SHT30;54931;52.098;21.006;2023-02-11T00:14:03;2.37;77.24
68128;SHT30;54931;52.098;21.006;2023-02-11T00:16:34;2.39;77.19
68128;SHT30;54931;52.098;21.006;2023-02-11T00:19:04;2.40;77.11
68128;SHT30;54931;52.098;21.006;2023-02-11T00:21:33;2.41;77.02
68128;SHT30;54931;52.098;21.006;2023-02-11T00:24:01;2.41;77.00
68128;SHT30;54931;52.098;21.006;2023-02-11T00:26:33;2.40;76.97
68128;SHT30;54931;52.098;21.006;2023-02-11T00:29:02;2.39;76.92
68128;SHT30;54931;52.098;21.006;2023-02-11T00:31:32;2.39;76.90
68128;SHT30;54931;52.098;21.006;2023-02-11T00:34:01;2.38;76.90
68128;SHT30;54931;52.098;21.006;2023-02-11T00:36:29;2.37;76.88
68128;SHT30;54931;52.098;21.006;2023-02-11T00:38:57;2.36;76.89
68128;SHT30;54931;52.098;21.006;2023-02-11T00:41:26;2.35;76.81
68128;SHT30;54931;52.098;21.006;2023-02-11T00:43:53;2.36;76.79
68128;SHT30;54931;52.098;21.006;2023-02-11T00:46:21;2.34;76.77
68128;SHT30;54931;52.098;21.006;2023-02-11T00:48:49;2.35;76.73
68128;SHT30;54931;52.098;21.006;2023-02-11T00:51:19;2.33;76.69
68128;SHT30;54931;52.098;21.006;2023-02-11T00:53:47;2.32;76.70
68128;SHT30;54931;52.098;21.006;2023-02-11T00:56:15;2.31;76.70
68128;SHT30;54931;52.098;21.006;2023-02-11T00:58:43;2.31;76.69
68128;SHT30;54931;52.098;21.006;2023-02-11T01:01:11;2.31;76.68
68128;SHT30;54931;52.098;21.006;2023-02-11T01:03:40;2.30;76.65
68128;SHT30;54931;52.098;21.006;2023-02-11T01:06:08;2.29;76.61
68128;SHT30;54931;52.098;21.006;2023-02-11T01:08:37;2.27;76.60
68128;SHT30;54931;52.098;21.006;2023-02-11T01:11:09;2.28;76.60
68128;SHT30;54931;52.098;21.006;2023-02-11T01:13:42;2.27;76.60
68128;SHT30;54931;52.098;21.006;2023-02-11T01:16:10;2.24;76.57
68128;SHT30;54931;52.098;21.006;2023-02-11T01:18:39;2.22;76.58
68128;SHT30;54931;52.098;21.006;2023-02-11T01:21:10;2.20;76.60
68128;SHT30;54931;52.098;21.006;2023-02-11T01:23:40;2.18;76.60
68128;SHT30;54931;52.098;21.006;2023-02-11T01:26:07;2.18;76.60
68128;SHT30;54931;52.098;21.006;2023-02-11T01:28:35;2.15;76.67
68128;SHT30;54931;52.098;21.006;2023-02-11T01:31:04;2.14;76.64
68128;SHT30;54931;52.098;21.006;2023-02-11T01:33:31;2.14;76.59
68128;SHT30;54931;52.098;21.006;2023-02-11T01:36:00;2.15;76.57
68128;SHT30;54931;52.098;21.006;2023-02-11T01:38:30;2.15;76.57
68128;SHT30;54931;52.098;21.006;2023-02-11T01:41:00;2.15;76.53
68128;SHT30;54931;52.098;21.006;2023-02-11T01:43:36;2.14;76.50
68128;SHT30;54931;52.098;21.006;2023-02-11T01:49:05;2.15;76.43
68128;SHT30;54931;52.098;21.006;2023-02-11T01:51:40;2.15;76.39
68128;SHT30;54931;52.098;21.006;2023-02-11T01:54:19;2.18;76.35
68128;SHT30;54931;52.098;21.006;2023-02-11T01:57:12;2.20;76.27
68128;SHT30;54931;52.098;21.006;2023-02-11T02:05:59;2.31;75.95
68128;SHT30;54931;52.098;21.006;2023-02-11T02:11:09;2.32;75.80
68128;SHT30;54931;52.098;21.006;2023-02-11T02:13:37;2.32;75.78
68128;SHT30;54931;52.098;21.006;2023-02-11T02:16:12;2.33;75.68
68128;SHT30;54931;52.098;21.006;2023-02-11T02:29:07;2.37;75.32
68128;SHT30;54931;52.098;21.006;2023-02-11T02:38:15;2.31;75.25
68128;SHT30;54931;52.098;21.006;2023-02-11T02:43:48;2.29;75.19
68128;SHT30;54931;52.098;21.006;2023-02-11T02:46:21;2.29;75.19
68128;SHT30;54931;52.098;21.006;2023-02-11T02:48:53;2.28;75.17
68128;SHT30;54931;52.098;21.006;2023-02-11T02:55:47;2.29;75.11
68128;SHT30;54931;52.098;21.006;2023-02-11T02:57:52;2.29;75.06
68128;SHT30;54931;52.098;21.006;2023-02-11T03:01:02;2.33;75.01
68128;SHT30;54931;52.098;21.006;2023-02-11T03:03:42;2.39;74.82
68128;SHT30;54931;52.098;21.006;2023-02-11T03:06:45;2.46;74.54
68128;SHT30;54931;52.098;21.006;2023-02-11T03:09:41;2.51;74.26
68128;SHT30;54931;52.098;21.006;2023-02-11T03:12:26;2.60;74.12
68128;SHT30;54931;52.098;21.006;2023-02-11T03:14:57;2.63;73.94
68128;SHT30;54931;52.098;21.006;2023-02-11T03:17:29;2.66;73.76
68128;SHT30;54931;52.098;21.006;2023-02-11T03:20:03;2.67;73.72
68128;SHT30;54931;52.098;21.006;2023-02-11T03:22:57;2.68;73.60
68128;SHT30;54931;52.098;21.006;2023-02-11T03:25:29;2.70;73.37
68128;SHT30;54931;52.098;21.006;2023-02-11T03:28:18;2.69;73.32
68128;SHT30;54931;52.098;21.006;2023-02-11T03:31:02;2.69;73.37
68128;SHT30;54931;52.098;21.006;2023-02-11T03:34:08;2.69;73.19
68128;SHT30;54931;52.098;21.006;2023-02-11T03:36:54;2.66;73.05
68128;SHT30;54931;52.098;21.006;2023-02-11T03:39:37;2.62;72.97
68128;SHT30;54931;52.098;21.006;2023-02-11T03:42:12;2.60;72.86
68128;SHT30;54931;52.098;21.006;2023-02-11T03:44:44;2.58;72.72
68128;SHT30;54931;52.098;21.006;2023-02-11T03:47:20;2.57;72.86
68128;SHT30;54931;52.098;21.006;2023-02-11T03:49:54;2.56;72.86
68128;SHT30;54931;52.098;21.006;2023-02-11T03:52:27;2.55;72.89
68128;SHT30;54931;52.098;21.006;2023-02-11T03:54:56;2.52;72.76
68128;SHT30;54931;52.098;21.006;2023-02-11T03:57:29;2.53;72.59
68128;SHT30;54931;52.098;21.006;2023-02-11T04:00:00;2.52;72.39
68128;SHT30;54931;52.098;21.006;2023-02-11T04:02:29;2.52;72.42
68128;SHT30;54931;52.098;21.006;2023-02-11T04:05:01;2.51;72.56
68128;SHT30;54931;52.098;21.006;2023-02-11T04:07:32;2.51;72.48
68128;SHT30;54931;52.098;21.006;2023-02-11T04:10:00;2.50;72.32
68128;SHT30;54931;52.098;21.006;2023-02-11T04:12:29;2.48;72.29
68128;SHT30;54931;52.098;21.006;2023-02-11T04:14:57;2.48;72.17
68128;SHT30;54931;52.098;21.006;2023-02-11T04:17:25;2.48;72.25
68128;SHT30;54931;52.098;21.006;2023-02-11T04:19:53;2.47;72.18
68128;SHT30;54931;52.098;21.006;2023-02-11T04:22:21;2.47;72.12
68128;SHT30;54931;52.098;21.006;2023-02-11T04:24:49;2.48;72.00
68128;SHT30;54931;52.098;21.006;2023-02-11T04:27:16;2.46;71.92
68128;SHT30;54931;52.098;21.006;2023-02-11T04:29:44;2.44;71.80
68128;SHT30;54931;52.098;21.006;2023-02-11T04:32:12;2.42;71.66
68128;SHT30;54931;52.098;21.006;2023-02-11T04:34:40;2.41;71.51
68128;SHT30;54931;52.098;21.006;2023-02-11T04:37:08;2.44;71.59
68128;SHT30;54931;52.098;21.006;2023-02-11T04:39:36;2.45;71.57
68128;SHT30;54931;52.098;21.006;2023-02-11T04:42:04;2.47;71.32
68128;SHT30;54931;52.098;21.006;2023-02-11T04:44:32;2.48;71.16
68128;SHT30;54931;52.098;21.006;2023-02-11T04:47:00;2.49;71.27
68128;SHT30;54931;52.098;21.006;2023-02-11T04:49:28;2.44;71.26
68128;SHT30;54931;52.098;21.006;2023-02-11T04:51:56;2.40;71.28
68128;SHT30;54931;52.098;21.006;2023-02-11T04:54:24;2.34;71.26
68128;SHT30;54931;52.098;21.006;2023-02-11T04:56:52;2.30;71.43
68128;SHT30;54931;52.098;21.006;2023-02-11T04:59:19;2.25;71.58
68128;SHT30;54931;52.098;21.006;2023-02-11T05:01:47;2.21;71.67
68128;SHT30;54931;52.098;21.006;2023-02-11T05:04:16;2.20;71.85
68128;SHT30;54931;52.098;21.006;2023-02-11T05:06:44;2.20;71.89
68128;SHT30;54931;52.098;21.006;2023-02-11T05:09:12;2.21;71.92
68128;SHT30;54931;52.098;21.006;2023-02-11T05:11:41;2.21;71.94
68128;SHT30;54931;52.098;21.006;2023-02-11T05:14:09;2.20;71.97
68128;SHT30;54931;52.098;21.006;2023-02-11T05:16:37;2.21;71.99
68128;SHT30;54931;52.098;21.006;2023-02-11T05:19:05;2.23;71.94
68128;SHT30;54931;52.098;21.006;2023-02-11T05:21:33;2.24;71.79
68128;SHT30;54931;52.098;21.006;2023-02-11T05:24:01;2.26;71.83
68128;SHT30;54931;52.098;21.006;2023-02-11T05:26:29;2.27;71.83
68128;SHT30;54931;52.098;21.006;2023-02-11T05:28:57;2.28;71.82
68128;SHT30;54931;52.098;21.006;2023-02-11T05:31:25;2.30;71.75
68128;SHT30;54931;52.098;21.006;2023-02-11T05:33:53;2.31;71.67
68128;SHT30;54931;52.098;21.006;2023-02-11T05:36:21;2.29;71.51
68128;SHT30;54931;52.098;21.006;2023-02-11T05:38:49;2.25;71.53
68128;SHT30;54931;52.098;21.006;2023-02-11T05:41:17;2.25;71.41
68128;SHT30;54931;52.098;21.006;2023-02-11T05:43:47;2.25;71.52
68128;SHT30;54931;52.098;21.006;2023-02-11T05:46:18;2.24;71.55
68128;SHT30;54931;52.098;21.006;2023-02-11T05:48:46;2.24;71.59
68128;SHT30;54931;52.098;21.006;2023-02-11T05:51:15;2.23;71.38
68128;SHT30;54931;52.098;21.006;2023-02-11T05:53:43;2.24;71.31
68128;SHT30;54931;52.098;21.006;2023-02-11T05:56:11;2.24;71.27
68128;SHT30;54931;52.098;21.006;2023-02-11T05:58:40;2.30;70.89
68128;SHT30;54931;52.098;21.006;2023-02-11T06:01:08;2.37;70.83
68128;SHT30;54931;52.098;21.006;2023-02-11T06:03:36;2.39;70.74
68128;SHT30;54931;52.098;21.006;2023-02-11T06:06:04;2.41;70.77
68128;SHT30;54931;52.098;21.006;2023-02-11T06:08:37;2.41;70.59
68128;SHT30;54931;52.098;21.006;2023-02-11T06:11:06;2.45;70.29
68128;SHT30;54931;52.098;21.006;2023-02-11T06:13:34;2.48;70.46
68128;SHT30;54931;52.098;21.006;2023-02-11T06:16:03;2.49;70.38
68128;SHT30;54931;52.098;21.006;2023-02-11T06:18:31;2.52;70.22
68128;SHT30;54931;52.098;21.006;2023-02-11T06:20:59;2.56;69.98
68128;SHT30;54931;52.098;21.006;2023-02-11T06:23:27;2.59;69.77
68128;SHT30;54931;52.098;21.006;2023-02-11T06:25:59;2.66;69.54
68128;SHT30;54931;52.098;21.006;2023-02-11T06:28:30;2.70;69.65
68128;SHT30;54931;52.098;21.006;2023-02-11T06:31:03;2.73;69.46
68128;SHT30;54931;52.098;21.006;2023-02-11T06:33:33;2.75;69.08
68128;SHT30;54931;52.098;21.006;2023-02-11T06:36:03;2.78;68.87
68128;SHT30;54931;52.098;21.006;2023-02-11T06:38:41;2.81;68.82
68128;SHT30;54931;52.098;21.006;2023-02-11T06:41:10;2.84;68.92
68128;SHT30;54931;52.098;21.006;2023-02-11T06:43:40;2.86;68.64
68128;SHT30;54931;52.098;21.006;2023-02-11T06:46:08;2.86;68.74
68128;SHT30;54931;52.098;21.006;2023-02-11T06:48:36;2.88;68.78
68128;SHT30;54931;52.098;21.006;2023-02-11T06:51:05;2.91;68.95
68128;SHT30;54931;52.098;21.006;2023-02-11T06:53:37;2.95;68.81
68128;SHT30;54931;52.098;21.006;2023-02-11T06:56:12;2.97;68.61
68128;SHT30;54931;52.098;21.006;2023-02-11T06:58:46;3.05;68.21
68128;SHT30;54931;52.098;21.006;2023-02-11T07:01:15;3.11;68.34
68128;SHT30;54931;52.098;21.006;2023-02-11T07:03:43;3.15;68.25
68128;SHT30;54931;52.098;21.006;2023-02-11T07:06:13;3.16;67.83
68128;SHT30;54931;52.098;21.006;2023-02-11T07:08:48;3.19;67.93
68128;SHT30;54931;52.098;21.006;2023-02-11T07:11:20;3.21;67.75
68128;SHT30;54931;52.098;21.006;2023-02-11T07:13:52;3.23;67.63
68128;SHT30;54931;52.098;21.006;2023-02-11T07:16:23;3.20;67.57
68128;SHT30;54931;52.098;21.006;2023-02-11T07:18:51;3.16;67.48
68128;SHT30;54931;52.098;21.006;2023-02-11T07:21:20;3.16;67.91
68128;SHT30;54931;52.098;21.006;2023-02-11T07:23:50;3.12;67.86
68128;SHT30;54931;52.098;21.006;2023-02-11T07:26:19;3.12;68.16
68128;SHT30;54931;52.098;21.006;2023-02-11T07:28:51;3.10;68.47
68128;SHT30;54931;52.098;21.006;2023-02-11T07:31:22;3.09;68.53
68128;SHT30;54931;52.098;21.006;2023-02-11T07:33:54;3.07;68.60
68128;SHT30;54931;52.098;21.006;2023-02-11T07:36:26;3.07;68.80
68128;SHT30;54931;52.098;21.006;2023-02-11T07:38:56;3.06;68.86
68128;SHT30;54931;52.098;21.006;2023-02-11T07:41:25;3.03;68.91
68128;SHT30;54931;52.098;21.006;2023-02-11T07:43:54;3.03;69.07
68128;SHT30;54931;52.098;21.006;2023-02-11T07:46:26;2.97;69.30
68128;SHT30;54931;52.098;21.006;2023-02-11T07:48:54;2.94;69.46
68128;SHT30;54931;52.098;21.006;2023-02-11T07:51:26;2.93;69.72
68128;SHT30;54931;52.098;21.006;2023-02-11T07:53:57;2.89;70.03
68128;SHT30;54931;52.098;21.006;2023-02-11T07:56:26;2.87;70.33
68128;SHT30;54931;52.098;21.006;2023-02-11T07:58:57;2.85;70.69
68128;SHT30;54931;52.098;21.006;2023-02-11T08:01:28;2.85;71.08
68128;SHT30;54931;52.098;21.006;2023-02-11T08:03:58;2.84;71.56
68128;SHT30;54931;52.098;21.006;2023-02-11T08:06:29;2.85;71.79
68128;SHT30;54931;52.098;21.006;2023-02-11T08:09:04;2.81;72.57
68128;SHT30;54931;52.098;21.006;2023-02-11T08:11:35;2.79;72.84
68128;SHT30;54931;52.098;21.006;2023-02-11T08:14:04;2.76;73.52
68128;SHT30;54931;52.098;21.006;2023-02-11T08:16:33;2.69;73.95
68128;SHT30;54931;52.098;21.006;2023-02-11T08:19:05;2.63;74.89
68128;SHT30;54931;52.098;21.006;2023-02-11T08:21:38;2.57;75.93
68128;SHT30;54931;52.098;21.006;2023-02-11T08:24:07;2.47;76.70
68128;SHT30;54931;52.098;21.006;2023-02-11T08:26:35;2.40;76.97
68128;SHT30;54931;52.098;21.006;2023-02-11T08:29:06;2.35;77.51
68128;SHT30;54931;52.098;21.006;2023-02-11T08:31:40;2.31;77.71
68128;SHT30;54931;52.098;21.006;2023-02-11T08:34:12;2.26;78.43
68128;SHT30;54931;52.098;21.006;2023-02-11T08:36:44;2.21;78.75
68128;SHT30;54931;52.098;21.006;2023-02-11T08:39:15;2.17;78.73
68128;SHT30;54931;52.098;21.006;2023-02-11T08:41:49;2.15;79.28
68128;SHT30;54931;52.098;21.006;2023-02-11T08:44:20;2.10;79.71
68128;SHT30;54931;52.098;21.006;2023-02-11T08:46:51;2.07;80.21
68128;SHT30;54931;52.098;21.006;2023-02-11T08:49:20;2.05;80.06
68128;SHT30;54931;52.098;21.006;2023-02-11T08:51:49;2.03;79.97
68128;SHT30;54931;52.098;21.006;2023-02-11T08:54:17;2.03;80.04
68128;SHT30;54931;52.098;21.006;2023-02-11T08:56:49;2.04;80.53
68128;SHT30;54931;52.098;21.006;2023-02-11T08:59:18;2.06;80.56
68128;SHT30;54931;52.098;21.006;2023-02-11T09:01:46;2.11;80.61
68128;SHT30;54931;52.098;21.006;2023-02-11T09:04:15;2.15;80.78
68128;SHT30;54931;52.098;21.006;2023-02-11T09:06:44;2.19;80.83
68128;SHT30;54931;52.098;21.006;2023-02-11T09:09:12;2.28;80.96
68128;SHT30;54931;52.098;21.006;2023-02-11T09:11:43;2.34;80.93
68128;SHT30;54931;52.098;21.006;2023-02-11T09:14:14;2.38;80.89
68128;SHT30;54931;52.098;21.006;2023-02-11T09:16:48;2.39;81.01
68128;SHT30;54931;52.098;21.006;2023-02-11T09:19:17;2.39;81.04
68128;SHT30;54931;52.098;21.006;2023-02-11T09:21:47;2.40;80.99
68128;SHT30;54931;52.098;21.006;2023-02-11T09:24:15;2.42;80.91
68128;SHT30;54931;52.098;21.006;2023-02-11T09:26:43;2.44;81.11
68128;SHT30;54931;52.098;21.006;2023-02-11T09:29:12;2.48;80.96
68128;SHT30;54931;52.098;21.006;2023-02-11T09:31:40;2.55;80.92
68128;SHT30;54931;52.098;21.006;2023-02-11T09:34:09;2.58;80.91
68128;SHT30;54931;52.098;21.006;2023-02-11T09:36:38;2.60;80.82
68128;SHT30;54931;52.098;21.006;2023-02-11T09:39:12;2.64;80.62
68128;SHT30;54931;52.098;21.006;2023-02-11T09:44:52;2.68;80.34
68128;SHT30;54931;52.098;21.006;2023-02-11T09:47:27;2.66;80.40
68128;SHT30;54931;52.098;21.006;2023-02-11T09:50:03;2.66;80.36
68128;SHT30;54931;52.098;21.006;2023-02-11T09:52:40;2.66;80.41
68128;SHT30;54931;52.098;21.006;2023-02-11T09:55:35;2.67;80.38
68128;SHT30;54931;52.098;21.006;2023-02-11T10:07:11;2.63;81.27
68128;SHT30;54931;52.098;21.006;2023-02-11T10:10:02;2.60;81.52
68128;SHT30;54931;52.098;21.006;2023-02-11T10:15:57;2.58;82.05
68128;SHT30;54931;52.098;21.006;2023-02-11T10:19:03;2.60;82.04
68128;SHT30;54931;52.098;21.006;2023-02-11T10:21:50;2.63;82.24
68128;SHT30;54931;52.098;21.006;2023-02-11T10:24:53;2.64;82.38
68128;SHT30;54931;52.098;21.006;2023-02-11T10:27:27;2.67;82.32
68128;SHT30;54931;52.098;21.006;2023-02-11T10:30:08;2.67;82.42
68128;SHT30;54931;52.098;21.006;2023-02-11T10:33:18;2.68;82.29
68128;SHT30;54931;52.098;21.006;2023-02-11T10:36:05;2.69;82.48
68128;SHT30;54931;52.098;21.006;2023-02-11T10:38:33;2.71;82.35
68128;SHT30;54931;52.098;21.006;2023-02-11T10:41:03;2.71;82.58
68128;SHT30;54931;52.098;21.006;2023-02-11T10:43:32;2.72;82.42
68128;SHT30;54931;52.098;21.006;2023-02-11T10:46:01;2.71;82.58
68128;SHT30;54931;52.098;21.006;2023-02-11T10:53:50;2.66;82.81
68128;SHT30;54931;52.098;21.006;2023-02-11T10:56:50;2.64;82.91
68128;SHT30;54931;52.098;21.006;2023-02-11T10:59:27;2.63;82.77
68128;SHT30;54931;52.098;21.006;2023-02-11T11:02:02;2.64;83.01
68128;SHT30;54931;52.098;21.006;2023-02-11T11:04:46;2.65;83.30
68128;SHT30;54931;52.098;21.006;2023-02-11T11:07:21;2.68;83.21
68128;SHT30;54931;52.098;21.006;2023-02-11T11:09:59;2.69;83.19
68128;SHT30;54931;52.098;21.006;2023-02-11T11:15:19;2.71;83.32
68128;SHT30;54931;52.098;21.006;2023-02-11T11:18:09;2.74;83.34
68128;SHT30;54931;52.098;21.006;2023-02-11T11:21:03;2.75;83.25
68128;SHT30;54931;52.098;21.006;2023-02-11T11:23:39;2.78;83.37
68128;SHT30;54931;52.098;21.006;2023-02-11T11:26:17;2.79;83.47
68128;SHT30;54931;52.098;21.006;2023-02-11T11:31:13;2.82;83.47
68128;SHT30;54931;52.098;21.006;2023-02-11T11:33:47;2.84;83.30
68128;SHT30;54931;52.098;21.006;2023-02-11T11:36:20;2.85;83.44
68128;SHT30;54931;52.098;21.006;2023-02-11T11:38:57;2.88;83.65
68128;SHT30;54931;52.098;21.006;2023-02-11T11:41:31;2.90;83.43
68128;SHT30;54931;52.098;21.006;2023-02-11T11:44:03;2.89;83.46
68128;SHT30;54931;52.098;21.006;2023-02-11T11:56:12;2.97;83.67
68128;SHT30;54931;52.098;21.006;2023-02-11T11:58:46;2.97;83.57
68128;SHT30;54931;52.098;21.006;2023-02-11T12:01:23;2.98;83.86
68128;SHT30;54931;52.098;21.006;2023-02-11T12:07:20;3.06;83.86
68128;SHT30;54931;52.098;21.006;2023-02-11T12:27:48;3.33;84.00
68128;SHT30;54931;52.098;21.006;2023-02-11T12:45:16;3.57;84.31
68128;SHT30;54931;52.098;21.006;2023-02-11T12:48:12;3.60;84.25
68128;SHT30;54931;52.098;21.006;2023-02-11T13:02:53;3.78;83.94
68128;SHT30;54931;52.098;21.006;2023-02-11T13:05:47;3.82;83.88
68128;SHT30;54931;52.098;21.006;2023-02-11T13:08:41;3.86;83.65
68128;SHT30;54931;52.098;21.006;2023-02-11T13:11:14;3.90;83.54
68128;SHT30;54931;52.098;21.006;2023-02-11T13:13:56;3.89;83.41
68128;SHT30;54931;52.098;21.006;2023-02-11T13:16:44;3.92;83.48
68128;SHT30;54931;52.098;21.006;2023-02-11T13:21:55;4.01;83.18
68128;SHT30;54931;52.098;21.006;2023-02-11T13:31:19;4.32;82.11
68128;SHT30;54931;52.098;21.006;2023-02-11T13:33:47;4.42;81.82
68128;SHT30;54931;52.098;21.006;2023-02-11T13:36:17;4.48;81.55
68128;SHT30;54931;52.098;21.006;2023-02-11T13:38:56;4.56;81.33
68128;SHT30;54931;52.098;21.006;2023-02-11T13:41:32;4.58;81.26
68128;SHT30;54931;52.098;21.006;2023-02-11T13:49:23;4.56;81.72
68128;SHT30;54931;52.098;21.006;2023-02-11T13:52:31;4.52;82.06
68128;SHT30;54931;52.098;21.006;2023-02-11T13:57:40;4.46;82.91
68128;SHT30;54931;52.098;21.006;2023-02-11T14:03:26;4.48;82.91
68128;SHT30;54931;52.098;21.006;2023-02-11T14:06:22;4.49;82.97
68128;SHT30;54931;52.098;21.006;2023-02-11T14:11:44;4.55;82.83
68128;SHT30;54931;52.098;21.006;2023-02-11T14:14:27;4.61;82.72
68128;SHT30;54931;52.098;21.006;2023-02-11T14:19:34;4.67;82.50
68128;SHT30;54931;52.098;21.006;2023-02-11T14:22:18;4.67;82.48
68128;SHT30;54931;52.098;21.006;2023-02-11T14:24:59;4.65;82.40
68128;SHT30;54931;52.098;21.006;2023-02-11T14:42:19;4.68;81.93
68128;SHT30;54931;52.098;21.006;2023-02-11T14:44:54;4.68;82.01
68128;SHT30;54931;52.098;21.006;2023-02-11T14:50:37;4.63;82.29
68128;SHT30;54931;52.098;21.006;2023-02-11T14:53:16;4.61;82.35
68128;SHT30;54931;52.098;21.006;2023-02-11T14:55:49;4.60;82.47
68128;SHT30;54931;52.098;21.006;2023-02-11T14:58:21;4.60;82.54
68128;SHT30;54931;52.098;21.006;2023-02-11T15:01:00;4.64;82.46
68128;SHT30;54931;52.098;21.006;2023-02-11T15:03:37;4.63;82.46
68128;SHT30;54931;52.098;21.006;2023-02-11T15:08:51;4.59;82.69
68128;SHT30;54931;52.098;21.006;2023-02-11T15:11:28;4.56;82.78
68128;SHT30;54931;52.098;21.006;2023-02-11T15:14:06;4.55;83.07
68128;SHT30;54931;52.098;21.006;2023-02-11T15:16:59;4.53;83.44
68128;SHT30;54931;52.098;21.006;2023-02-11T15:19:33;4.53;83.46
68128;SHT30;54931;52.098;21.006;2023-02-11T15:22:12;4.50;83.88
68128;SHT30;54931;52.098;21.006;2023-02-11T15:24:58;4.49;83.97
68128;SHT30;54931;52.098;21.006;2023-02-11T15:27:46;4.45;84.18
68128;SHT30;54931;52.098;21.006;2023-02-11T15:32:49;4.42;84.48
68128;SHT30;54931;52.098;21.006;2023-02-11T15:35:36;4.44;84.53
68128;SHT30;54931;52.098;21.006;2023-02-11T15:38:08;4.45;84.48
68128;SHT30;54931;52.098;21.006;2023-02-11T15:40:39;4.42;84.55
68128;SHT30;54931;52.098;21.006;2023-02-11T15:43:24;4.43;84.52
68128;SHT30;54931;52.098;21.006;2023-02-11T15:46:15;4.43;84.69
68128;SHT30;54931;52.098;21.006;2023-02-11T15:48:52;4.45;84.64
68128;SHT30;54931;52.098;21.006;2023-02-11T15:54:01;4.54;84.31
68128;SHT30;54931;52.098;21.006;2023-02-11T15:56:38;4.58;84.16
68128;SHT30;54931;52.098;21.006;2023-02-11T16:02:20;4.65;83.97
68128;SHT30;54931;52.098;21.006;2023-02-11T16:04:51;4.62;84.02
68128;SHT30;54931;52.098;21.006;2023-02-11T16:07:39;4.62;84.05
68128;SHT30;54931;52.098;21.006;2023-02-11T16:12:55;4.65;84.10
68128;SHT30;54931;52.098;21.006;2023-02-11T16:18:29;4.67;83.82
68128;SHT30;54931;52.098;21.006;2023-02-11T16:21:05;4.66;83.80
68128;SHT30;54931;52.098;21.006;2023-02-11T16:23:48;4.61;84.00
68128;SHT30;54931;52.098;21.006;2023-02-11T16:29:21;4.60;84.16
68128;SHT30;54931;52.098;21.006;2023-02-11T16:32:03;4.61;84.01
68128;SHT30;54931;52.098;21.006;2023-02-11T16:34:58;4.61;84.01
68128;SHT30;54931;52.098;21.006;2023-02-11T16:37:29;4.60;83.99
68128;SHT30;54931;52.098;21.006;2023-02-11T16:39:58;4.58;83.99
68128;SHT30;54931;52.098;21.006;2023-02-11T16:42:26;4.58;84.00
68128;SHT30;54931;52.098;21.006;2023-02-11T16:44:54;4.54;84.06
68128;SHT30;54931;52.098;21.006;2023-02-11T16:47:22;4.53;84.09
68128;SHT30;54931;52.098;21.006;2023-02-11T16:49:54;4.56;84.09
68128;SHT30;54931;52.098;21.006;2023-02-11T16:52:22;4.59;84.05
68128;SHT30;54931;52.098;21.006;2023-02-11T16:54:51;4.62;83.83
68128;SHT30;54931;52.098;21.006;2023-02-11T16:57:23;4.65;83.84
68128;SHT30;54931;52.098;21.006;2023-02-11T16:59:52;4.68;83.66
68128;SHT30;54931;52.098;21.006;2023-02-11T17:02:30;4.69;83.56
68128;SHT30;54931;52.098;21.006;2023-02-11T17:05:05;4.71;83.50
68128;SHT30;54931;52.098;21.006;2023-02-11T17:07:43;4.71;83.45
68128;SHT30;54931;52.098;21.006;2023-02-11T17:10:15;4.70;83.47
68128;SHT30;54931;52.098;21.006;2023-02-11T17:12:47;4.67;83.78
68128;SHT30;54931;52.098;21.006;2023-02-11T17:15:17;4.66;83.91
68128;SHT30;54931;52.098;21.006;2023-02-11T17:17:45;4.65;84.01
68128;SHT30;54931;52.098;21.006;2023-02-11T17:20:14;4.62;84.07
68128;SHT30;54931;52.098;21.006;2023-02-11T17:22:42;4.58;84.11
68128;SHT30;54931;52.098;21.006;2023-02-11T17:25:11;4.57;84.28
68128;SHT30;54931;52.098;21.006;2023-02-11T17:27:39;4.55;84.30
68128;SHT30;54931;52.098;21.006;2023-02-11T17:30:09;4.53;84.28
68128;SHT30;54931;52.098;21.006;2023-02-11T17:32:37;4.52;84.48
68128;SHT30;54931;52.098;21.006;2023-02-11T17:35:05;4.52;84.52
68128;SHT30;54931;52.098;21.006;2023-02-11T17:37:34;4.51;84.52
68128;SHT30;54931;52.098;21.006;2023-02-11T17:40:02;4.51;84.53
68128;SHT30;54931;52.098;21.006;2023-02-11T17:42:31;4.51;84.55
68128;SHT30;54931;52.098;21.006;2023-02-11T17:44:59;4.50;84.60
68128;SHT30;54931;52.098;21.006;2023-02-11T17:47:28;4.52;84.49
68128;SHT30;54931;52.098;21.006;2023-02-11T17:49:56;4.51;84.56
68128;SHT30;54931;52.098;21.006;2023-02-11T17:52:24;4.53;84.61
68128;SHT30;54931;52.098;21.006;2023-02-11T17:54:54;4.53;84.58
68128;SHT30;54931;52.098;21.006;2023-02-11T17:57:24;4.55;84.66
68128;SHT30;54931;52.098;21.006;2023-02-11T17:59:52;4.55;84.50
68128;SHT30;54931;52.098;21.006;2023-02-11T18:02:21;4.53;84.50
68128;SHT30;54931;52.098;21.006;2023-02-11T18:04:49;4.54;84.56
68128;SHT30;54931;52.098;21.006;2023-02-11T18:07:18;4.52;84.56
68128;SHT30;54931;52.098;21.006;2023-02-11T18:09:46;4.53;84.65
68128;SHT30;54931;52.098;21.006;2023-02-11T18:12:14;4.54;84.61
68128;SHT30;54931;52.098;21.006;2023-02-11T18:14:51;4.54;84.54
68128;SHT30;54931;52.098;21.006;2023-02-11T18:17:21;4.53;84.70
68128;SHT30;54931;52.098;21.006;2023-02-11T18:19:49;4.54;84.92
68128;SHT30;54931;52.098;21.006;2023-02-11T18:22:17;4.56;84.77
68128;SHT30;54931;52.098;21.006;2023-02-11T18:24:49;4.57;84.76
68128;SHT30;54931;52.098;21.006;2023-02-11T18:27:20;4.57;84.74
68128;SHT30;54931;52.098;21.006;2023-02-11T18:29:48;4.57;84.74
68128;SHT30;54931;52.098;21.006;2023-02-11T18:32:16;4.57;84.79
68128;SHT30;54931;52.098;21.006;2023-02-11T18:34:44;4.57;84.71
68128;SHT30;54931;52.098;21.006;2023-02-11T18:37:12;4.57;84.69
68128;SHT30;54931;52.098;21.006;2023-02-11T18:39:42;4.58;84.89
68128;SHT30;54931;52.098;21.006;2023-02-11T18:42:10;4.58;84.80
68128;SHT30;54931;52.098;21.006;2023-02-11T18:44:38;4.60;84.98
68128;SHT30;54931;52.098;21.006;2023-02-11T18:47:06;4.62;85.12
68128;SHT30;54931;52.098;21.006;2023-02-11T18:49:34;4.63;85.00
68128;SHT30;54931;52.098;21.006;2023-02-11T18:52:02;4.64;85.07
68128;SHT30;54931;52.098;21.006;2023-02-11T18:54:30;4.66;84.97
68128;SHT30;54931;52.098;21.006;2023-02-11T18:56:58;4.68;85.00
68128;SHT30;54931;52.098;21.006;2023-02-11T18:59:26;4.69;84.90
68128;SHT30;54931;52.098;21.006;2023-02-11T19:01:54;4.70;84.92
68128;SHT30;54931;52.098;21.006;2023-02-11T19:04:22;4.70;84.90
68128;SHT30;54931;52.098;21.006;2023-02-11T19:06:50;4.73;85.01
68128;SHT30;54931;52.098;21.006;2023-02-11T19:09:19;4.74;84.99